createdAt,value
2023-01-12T00:02:25.340Z,99800.28
2023-01-12T00:04:53.247Z,99790.53
2023-01-12T00:07:21.165Z,99774.69
2023-01-12T00:09:49.147Z,99793.25
2023-01-12T00:12:17.134Z,99803.25
2023-01-12T00:14:46.457Z,99810.81
2023-01-12T00:17:17.270Z,99807.16
2023-01-12T00:19:45.261Z,99810.91
2023-01-12T00:22:16.591Z,99812.09
2023-01-12T00:24:45.693Z,99812.78
2023-01-12T00:27:15.716Z,99730.06
2023-01-12T00:29:43.786Z,99816.31
2023-01-12T00:32:15.826Z,99790.63
2023-01-12T00:34:44.126Z,99835.31
2023-01-12T00:37:13.128Z,99832.38
2023-01-12T00:39:45.971Z,99836.06
2023-01-12T00:42:34.508Z,99837.72
2023-01-12T00:45:19.774Z,99832.53
2023-01-12T00:47:49.032Z,99836.66
2023-01-12T00:50:19.364Z,99836.97
2023-01-12T00:52:48.546Z,99832.53
2023-01-12T00:55:16.780Z,99832.19
2023-01-12T00:57:44.771Z,99834.97
2023-01-12T01:00:13.758Z,99831.44
2023-01-12T01:02:41.629Z,99832.34
2023-01-12T01:05:11.270Z,99835.88
2023-01-12T01:07:39.474Z,99834.13
2023-01-12T01:10:08.350Z,99834.38
2023-01-12T01:12:36.246Z,99837.66
2023-01-12T01:15:04.841Z,99848.50
2023-01-12T01:17:32.769Z,99846.84
2023-01-12T01:20:01.298Z,99848.31
2023-01-12T01:22:30.654Z,99850.72
2023-01-12T01:24:58.540Z,99847.38
2023-01-12T01:27:26.588Z,99844.53
2023-01-12T01:29:54.521Z,99847.19
2023-01-12T01:32:22.420Z,99852.03
2023-01-12T01:34:50.365Z,99845.56
2023-01-12T01:37:18.519Z,99839.22
2023-01-12T01:39:47.880Z,99835.88
2023-01-12T01:42:28.264Z,99834.13
2023-01-12T01:44:58.995Z,99833.75
2023-01-12T01:47:31.378Z,99830.09
2023-01-12T01:50:02.376Z,99835.22
2023-01-12T01:52:34.461Z,99839.50
2023-01-12T01:55:09.733Z,99826.22
2023-01-12T01:57:43.780Z,99832.28
2023-01-12T02:00:13.632Z,99826.09
2023-01-12T02:02:44.268Z,99821.84
2023-01-12T02:05:12.995Z,99829.16
2023-01-12T02:07:41.887Z,99832.31
2023-01-12T02:10:12.413Z,99825.75
2023-01-12T02:12:58.398Z,99828.91
2023-01-12T02:15:46.999Z,99830.34
2023-01-12T02:18:22.878Z,99831.19
2023-01-12T02:21:18.935Z,99827.28
2023-01-12T02:24:20.697Z,99831.94
2023-01-12T02:27:17.837Z,99836.06
2023-01-12T02:30:34.421Z,99831.84
2023-01-12T02:33:16.561Z,99837.19
2023-01-12T02:35:51.524Z,99829.81
2023-01-12T02:38:30.104Z,99831.34
2023-01-12T02:41:06.671Z,99836.47
2023-01-12T02:43:36.786Z,99816.50
2023-01-12T02:46:13.145Z,99826.19
2023-01-12T02:48:48.940Z,99833.81
2023-01-12T02:51:29.299Z,99829.19
2023-01-12T02:54:01.496Z,99826.78
2023-01-12T02:56:32.467Z,99832.84
2023-01-12T02:59:05.573Z,99830.38
2023-01-12T03:01:34.863Z,99823.22
2023-01-12T03:04:08.941Z,99815.53
2023-01-12T03:06:42.723Z,99830.03
2023-01-12T03:09:11.419Z,99815.03
2023-01-12T03:11:44.129Z,99833.81
2023-01-12T03:14:15.158Z,99830.97
2023-01-12T03:16:43.048Z,99837.47
2023-01-12T03:19:17.551Z,99839.47
2023-01-12T03:21:51.482Z,99834.16
2023-01-12T03:24:24.377Z,99833.97
2023-01-12T03:26:56.036Z,99832.91
2023-01-12T03:29:28.940Z,99814.84
2023-01-12T03:31:57.977Z,99834.59
2023-01-12T03:34:27.847Z,99840.41
2023-01-12T03:37:01.949Z,99837.25
2023-01-12T03:39:43.295Z,99838.19
2023-01-12T03:42:16.911Z,99840.78
2023-01-12T03:44:54.633Z,99848.53
2023-01-12T03:47:28.322Z,99847.47
2023-01-12T03:50:02.047Z,99843.03
2023-01-12T03:52:31.408Z,99848.22
2023-01-12T03:55:00.810Z,99844.44
2023-01-12T03:57:29.791Z,99848.72
2023-01-12T04:00:00.821Z,99844.72
2023-01-12T04:02:28.854Z,99851.19
2023-01-12T04:04:58.901Z,99852.28
2023-01-12T04:07:27.120Z,99848.47
2023-01-12T04:09:55.044Z,99847.72
2023-01-12T04:12:22.944Z,99824.66
2023-01-12T04:14:51.026Z,99841.38
2023-01-12T04:17:19.246Z,99858.97
2023-01-12T04:19:47.158Z,99861.16
2023-01-12T04:22:35.242Z,99835.38
2023-01-12T04:25:03.506Z,99861.91
2023-01-12T04:27:31.686Z,99858.38
2023-01-12T04:29:59.868Z,99858.19
2023-01-12T04:32:27.852Z,99850.06
2023-01-12T04:34:55.831Z,99860.78
2023-01-12T04:37:25.205Z,99847.53
2023-01-12T04:39:53.091Z,99863.59
2023-01-12T04:42:38.198Z,99868.41
2023-01-12T04:45:07.016Z,99858.56
2023-01-12T04:47:35.478Z,99868.09
2023-01-12T04:50:03.536Z,99866.25
2023-01-12T04:52:32.891Z,99865.22
2023-01-12T04:55:00.959Z,99875.22
2023-01-12T04:57:29.119Z,99870.09
2023-01-12T04:59:57.136Z,99851.19
2023-01-12T05:02:25.479Z,99878.63
2023-01-12T05:04:53.411Z,99882.28
2023-01-12T05:07:21.630Z,99884.69
2023-01-12T05:10:08.260Z,99879.47
2023-01-12T05:12:36.180Z,99885.00
2023-01-12T05:15:04.663Z,99887.28
2023-01-12T05:17:33.361Z,99882.78
2023-01-12T05:20:01.374Z,99885.88
2023-01-12T05:22:29.298Z,99878.50
2023-01-12T05:24:58.884Z,99883.97
2023-01-12T05:27:26.861Z,99862.50
2023-01-12T05:29:57.144Z,99862.03
2023-01-12T05:32:25.069Z,99881.69
2023-01-12T05:34:53.086Z,99886.25
2023-01-12T05:37:21.076Z,99894.47
2023-01-12T05:39:49.015Z,99890.09
2023-01-12T05:42:36.095Z,99885.31
2023-01-12T05:45:04.112Z,99891.25
2023-01-12T05:47:32.143Z,99895.53
2023-01-12T05:50:00.118Z,99865.97
2023-01-12T05:52:28.256Z,99898.56
2023-01-12T05:54:56.280Z,99898.63
2023-01-12T05:57:25.666Z,99899.66
2023-01-12T05:59:53.689Z,99895.47
2023-01-12T06:02:22.371Z,99899.47
2023-01-12T06:04:50.583Z,99899.00
2023-01-12T06:07:18.545Z,99881.63
2023-01-12T06:09:46.659Z,99904.88
2023-01-12T06:12:32.100Z,99893.91
2023-01-12T06:15:01.369Z,99895.13
2023-01-12T06:17:29.259Z,99899.75
2023-01-12T06:19:57.274Z,99906.97
2023-01-12T06:22:27.120Z,99904.34
2023-01-12T06:24:55.142Z,99906.81
2023-01-12T06:27:23.174Z,99910.66
2023-01-12T06:29:51.200Z,99911.66
2023-01-12T06:32:20.485Z,99913.31
2023-01-12T06:34:48.446Z,99914.63
2023-01-12T06:37:16.958Z,99919.59
2023-01-12T06:39:44.928Z,99922.19
2023-01-12T06:42:31.617Z,99921.13
2023-01-12T06:45:03.918Z,99928.28
2023-01-12T06:47:33.715Z,99933.34
2023-01-12T06:50:01.804Z,99935.41
2023-01-12T06:52:30.339Z,99931.84
2023-01-12T06:54:59.320Z,99925.22
2023-01-12T06:57:27.291Z,99926.88
2023-01-12T06:59:56.482Z,99928.25
2023-01-12T07:02:24.403Z,99923.50
2023-01-12T07:04:53.740Z,99938.84
2023-01-12T07:07:21.696Z,99942.44
2023-01-12T07:09:49.716Z,99932.78
2023-01-12T07:12:17.872Z,99933.44
2023-01-12T07:14:45.834Z,99937.50
2023-01-12T07:17:13.885Z,99939.28
2023-01-12T07:19:42.399Z,99937.88
2023-01-12T07:22:11.699Z,99936.28
2023-01-12T07:24:39.610Z,99930.81
2023-01-12T07:27:07.487Z,99948.25
2023-01-12T07:29:35.520Z,99950.84
2023-01-12T07:32:03.565Z,99944.72
2023-01-12T07:34:31.855Z,99927.22
2023-01-12T07:36:59.802Z,99944.34
2023-01-12T07:39:29.297Z,99950.06
2023-01-12T07:42:14.600Z,99901.66
2023-01-12T07:44:42.571Z,99931.41
2023-01-12T07:47:10.613Z,99955.50
2023-01-12T07:49:38.647Z,99962.47
2023-01-12T07:52:06.831Z,99967.25
2023-01-12T07:54:36.439Z,99936.97
2023-01-12T07:57:04.531Z,99973.19
2023-01-12T07:59:32.544Z,99986.13
2023-01-12T08:02:00.592Z,99979.22
2023-01-12T08:04:28.637Z,99982.28
2023-01-12T08:06:57.137Z,99979.69
2023-01-12T08:09:25.124Z,99976.47
2023-01-12T08:11:54.519Z,99977.72
2023-01-12T08:14:30.391Z,99976.03
2023-01-12T08:17:01.741Z,99979.44
2023-01-12T08:19:37.221Z,99938.88
2023-01-12T08:22:07.118Z,99979.94
2023-01-12T08:24:39.742Z,99983.66
2023-01-12T08:27:10.917Z,99987.00
2023-01-12T08:29:42.175Z,99969.72
2023-01-12T08:32:13.352Z,99983.59
2023-01-12T08:34:43.781Z,99986.63
2023-01-12T08:37:16.287Z,99983.31
2023-01-12T08:39:44.747Z,99975.81
2023-01-12T08:42:14.351Z,99977.53
2023-01-12T08:44:42.668Z,99983.22
2023-01-12T08:47:18.182Z,99987.28
2023-01-12T08:49:46.347Z,99984.69
2023-01-12T08:52:14.634Z,99988.97
2023-01-12T08:54:43.003Z,99990.63
2023-01-12T08:57:10.996Z,99979.22
2023-01-12T08:59:40.441Z,99971.59
2023-01-12T09:02:09.017Z,99977.22
2023-01-12T09:04:39.643Z,99982.91
2023-01-12T09:07:07.760Z,99974.34
2023-01-12T09:09:35.960Z,99980.88
2023-01-12T09:12:04.256Z,99982.59
2023-01-12T09:14:32.329Z,99982.38
2023-01-12T09:17:01.740Z,99977.56
2023-01-12T09:19:30.840Z,99964.84
2023-01-12T09:21:58.780Z,99975.03
2023-01-12T09:24:26.699Z,99979.28
2023-01-12T09:26:54.646Z,99975.72
2023-01-12T09:29:22.703Z,99968.75
2023-01-12T09:31:50.844Z,99956.63
2023-01-12T09:34:20.307Z,99968.34
2023-01-12T09:36:50.350Z,99966.47
2023-01-12T09:39:27.204Z,99975.59
2023-01-12T09:42:13.824Z,99962.72
2023-01-12T09:45:01.354Z,99966.59
2023-01-12T09:47:34.179Z,99962.13
2023-01-12T09:50:09.866Z,99970.47
2023-01-12T09:52:42.600Z,99958.38
2023-01-12T09:55:17.617Z,99909.28
2023-01-12T09:58:15.019Z,99926.94
2023-01-12T10:00:43.012Z,99959.06
2023-01-12T10:03:17.455Z,99944.25
2023-01-12T10:05:50.279Z,99946.59
2023-01-12T10:08:27.633Z,99943.91
2023-01-12T10:11:09.533Z,99943.41
2023-01-12T10:13:58.840Z,99938.09
2023-01-12T10:16:36.092Z,99927.09
2023-01-12T10:19:14.527Z,99937.66
2023-01-12T10:21:44.728Z,99940.22
2023-01-12T10:24:14.065Z,99937.38
2023-01-12T10:26:44.360Z,99938.41
2023-01-12T10:29:13.434Z,99934.69
2023-01-12T10:31:41.798Z,99933.00
2023-01-12T10:34:12.540Z,99926.28
2023-01-12T10:36:45.949Z,99924.28
2023-01-12T10:39:32.503Z,99932.56
2023-01-12T10:42:39.401Z,99918.59
2023-01-12T10:45:20.803Z,99919.53
2023-01-12T10:47:51.016Z,99916.44
2023-01-12T10:50:28.717Z,99911.94
2023-01-12T10:53:03.284Z,99908.59
2023-01-12T10:55:35.002Z,99909.59
2023-01-12T10:58:03.262Z,99907.00
2023-01-12T11:00:31.719Z,99914.31
2023-01-12T11:02:59.852Z,99916.72
2023-01-12T11:05:31.424Z,99914.41
2023-01-12T11:08:02.032Z,99909.22
2023-01-12T11:10:32.925Z,99908.38
2023-01-12T11:13:03.528Z,99887.72
2023-01-12T11:15:35.695Z,99894.59
2023-01-12T11:18:32.206Z,99910.06
2023-01-12T11:21:06.593Z,99898.69
2023-01-12T11:23:40.234Z,99888.78
2023-01-12T11:26:18.648Z,99897.53
2023-01-12T11:28:50.539Z,99880.91
2023-01-12T11:31:22.977Z,99897.94
2023-01-12T11:33:56.402Z,99881.28
2023-01-12T11:36:28.443Z,99896.38
2023-01-12T11:39:04.254Z,99888.72
2023-01-12T11:41:38.998Z,99881.94
2023-01-12T11:44:15.550Z,99875.03
2023-01-12T11:46:47.693Z,99881.75
2023-01-12T11:49:19.625Z,99860.47
2023-01-12T11:51:50.457Z,99877.16
2023-01-12T11:54:20.224Z,99874.47
2023-01-12T11:57:23.020Z,99861.56
2023-01-12T12:00:03.410Z,99864.47
2023-01-12T12:02:37.109Z,99863.06
2023-01-12T12:05:20.920Z,99853.31
2023-01-12T12:08:05.080Z,99838.28
2023-01-12T12:10:44.623Z,99862.91
2023-01-12T12:13:31.636Z,99846.97
2023-01-12T12:16:13.042Z,99860.28
2023-01-12T12:18:54.478Z,99852.16
2023-01-12T12:21:37.747Z,99863.53
2023-01-12T12:24:19.928Z,99863.75
2023-01-12T12:26:58.232Z,99856.44
2023-01-12T12:29:41.145Z,99856.22
2023-01-12T12:32:21.295Z,99855.91
2023-01-12T12:35:14.704Z,99852.06
2023-01-12T12:37:55.464Z,99850.91
2023-01-12T12:40:52.804Z,99849.22
2023-01-12T12:43:47.530Z,99825.00
2023-01-12T12:46:24.257Z,99851.44
2023-01-12T12:49:00.047Z,99852.97
2023-01-12T12:51:31.300Z,99855.41
2023-01-12T12:54:01.033Z,99812.31
2023-01-12T12:56:32.264Z,99851.84
2023-01-12T12:59:02.624Z,99847.25
2023-01-12T13:01:43.544Z,99849.53
2023-01-12T13:04:14.458Z,99850.91
2023-01-12T13:06:46.291Z,99846.00
2023-01-12T13:09:40.911Z,99855.69
2023-01-12T13:12:32.142Z,99848.50
2023-01-12T13:15:26.927Z,99859.34
2023-01-12T13:17:55.677Z,99854.47
2023-01-12T13:20:51.684Z,99859.03
2023-01-12T13:23:50.667Z,99857.28
2023-01-12T13:26:37.760Z,99862.28
2023-01-12T13:29:40.056Z,99839.03
2023-01-12T13:32:44.423Z,99858.94
2023-01-12T13:35:56.290Z,99854.97
2023-01-12T13:38:49.130Z,99857.28
2023-01-12T13:41:44.577Z,99833.91
2023-01-12T13:44:17.812Z,99855.59
2023-01-12T13:46:48.404Z,99855.81
2023-01-12T13:49:29.661Z,99853.72
2023-01-12T13:52:01.076Z,99840.91
2023-01-12T13:54:29.904Z,99850.81
2023-01-12T13:57:00.191Z,99854.34
2023-01-12T13:59:30.045Z,99853.00
2023-01-12T14:01:59.171Z,99858.72
2023-01-12T14:04:57.802Z,99850.91
2023-01-12T14:07:43.837Z,99858.63
2023-01-12T14:10:33.876Z,99851.72
2023-01-12T14:13:27.399Z,99856.22
2023-01-12T14:16:19.326Z,99863.50
2023-01-12T14:18:50.080Z,99837.03
2023-01-12T14:21:24.155Z,99868.75
2023-01-12T14:23:53.862Z,99858.22
2023-01-12T14:26:24.005Z,99871.22
2023-01-12T14:28:53.844Z,99879.16
2023-01-12T14:31:28.400Z,99885.22
2023-01-12T14:33:58.731Z,99885.94
2023-01-12T14:36:29.642Z,99860.91
2023-01-12T14:39:00.344Z,99892.94
2023-01-12T14:41:48.792Z,99893.34
2023-01-12T14:44:37.983Z,99898.16
2023-01-12T14:47:06.949Z,99887.94
2023-01-12T14:49:36.523Z,99898.25
2023-01-12T14:52:22.894Z,99894.28
2023-01-12T14:54:52.324Z,99891.25
2023-01-12T14:57:24.789Z,99893.53
2023-01-12T14:59:53.767Z,99878.09
2023-01-12T15:02:34.691Z,99899.63
2023-01-12T15:05:06.404Z,99902.97
2023-01-12T15:07:36.479Z,99905.47
2023-01-12T15:10:27.936Z,99902.72
2023-01-12T15:12:57.043Z,99904.41
2023-01-12T15:15:26.641Z,99912.84
2023-01-12T15:18:13.369Z,99918.91
2023-01-12T15:21:00.768Z,99923.06
2023-01-12T15:23:48.731Z,99923.88
2023-01-12T15:26:18.496Z,99923.06
2023-01-12T15:28:47.323Z,99923.69
2023-01-12T15:31:26.155Z,99929.41
2023-01-12T15:33:54.324Z,99929.41
2023-01-12T15:36:22.251Z,99930.75
2023-01-12T15:38:50.447Z,99939.34
2023-01-12T15:41:44.124Z,99925.56
2023-01-12T15:44:14.026Z,99941.53
2023-01-12T15:46:42.348Z,99939.34
2023-01-12T15:49:10.626Z,99936.25
2023-01-12T15:51:38.879Z,99938.44
2023-01-12T15:54:08.066Z,99929.66
2023-01-12T15:56:37.452Z,99940.50
2023-01-12T15:59:05.778Z,99909.91
2023-01-12T16:01:38.387Z,99935.25
2023-01-12T16:04:40.181Z,99941.72
2023-01-12T16:06:55.672Z,99942.78
2023-01-12T16:09:23.822Z,99946.22
2023-01-12T16:11:53.106Z,99943.81
2023-01-12T16:14:21.113Z,99936.47
2023-01-12T16:16:49.170Z,99945.91
2023-01-12T16:19:22.555Z,99943.63
2023-01-12T16:21:50.588Z,99950.75
2023-01-12T16:24:18.605Z,99954.06
2023-01-12T16:26:47.385Z,99954.25
2023-01-12T16:29:16.757Z,99956.78
2023-01-12T16:31:45.477Z,99957.72
2023-01-12T16:34:13.571Z,99959.06
2023-01-12T16:36:41.843Z,99957.59
2023-01-12T16:39:13.170Z,99964.28
2023-01-12T16:41:41.175Z,99962.53
2023-01-12T16:44:10.784Z,99965.72
2023-01-12T16:46:40.184Z,99952.72
2023-01-12T16:49:08.204Z,99962.16
2023-01-12T16:51:36.131Z,99967.91
2023-01-12T16:54:04.800Z,99974.97
2023-01-12T16:56:33.161Z,99971.97
2023-01-12T16:59:01.227Z,99974.03
2023-01-12T17:01:29.372Z,99964.56
2023-01-12T17:03:58.829Z,99966.22
2023-01-12T17:06:28.988Z,99974.03
2023-01-12T17:08:57.365Z,99974.91
2023-01-12T17:11:27.532Z,99974.03
2023-01-12T17:13:58.302Z,99978.59
2023-01-12T17:16:29.451Z,99980.72
2023-01-12T17:18:58.837Z,99985.97
2023-01-12T17:21:27.246Z,99986.47
2023-01-12T17:23:55.561Z,99991.88
2023-01-12T17:26:24.117Z,99996.34
2023-01-12T17:28:52.166Z,99992.94
2023-01-12T17:31:21.141Z,99993.13
2023-01-12T17:33:50.111Z,99993.00
2023-01-12T17:36:20.009Z,99991.84
2023-01-12T17:38:47.973Z,99984.84
2023-01-12T17:41:31.723Z,99999.28
2023-01-12T17:44:01.342Z,99975.22
2023-01-12T17:46:29.364Z,99976.56
2023-01-12T17:48:59.019Z,99982.63
2023-01-12T17:51:28.650Z,99994.38
2023-01-12T17:53:56.921Z,99994.38
2023-01-12T17:56:25.119Z,100001.25
2023-01-12T17:58:53.612Z,99991.38
2023-01-12T18:01:22.904Z,99997.34
2023-01-12T18:03:51.025Z,99996.41
2023-01-12T18:06:26.471Z,99989.72
2023-01-12T18:08:59.488Z,100003.09
2023-01-12T18:11:27.959Z,100005.72
2023-01-12T18:13:56.658Z,100003.19
2023-01-12T18:16:25.424Z,100002.00
2023-01-12T18:18:54.309Z,100002.91
2023-01-12T18:21:26.060Z,99985.53
2023-01-12T18:23:57.302Z,100006.38
2023-01-12T18:26:28.215Z,100006.47
2023-01-12T18:28:57.259Z,100007.56
2023-01-12T18:31:26.975Z,100010.81
2023-01-12T18:33:58.737Z,99999.97
2023-01-12T18:36:27.164Z,100011.66
2023-01-12T18:38:56.554Z,100011.28
2023-01-12T18:41:44.755Z,99994.28
2023-01-12T18:44:13.202Z,100014.09
2023-01-12T18:47:00.404Z,99988.91
2023-01-12T18:49:30.837Z,100005.53
2023-01-12T18:52:17.125Z,100020.50
2023-01-12T18:54:47.948Z,100004.25
2023-01-12T18:57:17.500Z,100013.75
2023-01-12T18:59:45.544Z,100009.41
2023-01-12T19:02:14.300Z,100012.69
2023-01-12T19:05:05.368Z,100015.09
2023-01-12T19:07:40.647Z,100016.47
2023-01-12T19:10:11.190Z,100019.00
2023-01-12T19:12:39.160Z,100018.56
2023-01-12T19:15:25.354Z,100012.88
2023-01-12T19:17:53.569Z,100025.16
2023-01-12T19:20:21.694Z,100025.72
2023-01-12T19:23:07.207Z,100024.69
2023-01-12T19:26:07.706Z,100029.78
2023-01-12T19:28:36.457Z,100025.78
2023-01-12T19:31:06.584Z,100024.94
2023-01-12T19:33:35.228Z,100019.88
2023-01-12T19:36:06.830Z,100028.75
2023-01-12T19:38:35.891Z,100019.81
2023-01-12T19:41:12.278Z,100028.59
2023-01-12T19:43:41.823Z,100031.47
2023-01-12T19:46:11.014Z,100036.94
2023-01-12T19:48:39.034Z,100040.94
2023-01-12T19:51:10.855Z,100039.63
2023-01-12T19:53:40.420Z,100036.28
2023-01-12T19:56:12.028Z,100041.19
2023-01-12T19:58:40.177Z,100043.25
2023-01-12T20:01:08.915Z,100040.44
2023-01-12T20:03:39.740Z,100046.22
2023-01-12T20:06:09.372Z,100044.28
2023-01-12T20:08:37.379Z,100042.97
2023-01-12T20:11:06.322Z,100040.63
2023-01-12T20:13:36.524Z,100024.91
2023-01-12T20:16:07.401Z,100048.81
2023-01-12T20:18:35.654Z,100057.09
2023-01-12T20:21:08.409Z,100051.72
2023-01-12T20:23:36.545Z,100059.78
2023-01-12T20:26:07.693Z,100053.63
2023-01-12T20:28:37.083Z,100057.28
2023-01-12T20:31:10.240Z,100055.09
2023-01-12T20:33:38.249Z,100055.31
2023-01-12T20:36:09.961Z,100058.09
2023-01-12T20:38:37.925Z,100049.22
2023-01-12T20:41:06.214Z,100059.75
2023-01-12T20:43:34.332Z,100063.97
2023-01-12T20:46:07.629Z,100060.31
2023-01-12T20:48:35.603Z,100058.88
2023-01-12T20:51:03.628Z,100061.69
2023-01-12T20:53:31.790Z,100060.19
2023-01-12T20:55:59.759Z,100072.06
2023-01-12T20:58:27.687Z,100050.22
2023-01-12T21:00:55.801Z,100062.38
2023-01-12T21:03:25.435Z,100062.72
2023-01-12T21:05:53.958Z,100066.72
2023-01-12T21:08:21.919Z,100069.09
2023-01-12T21:10:51.463Z,100058.88
2023-01-12T21:13:20.067Z,100047.72
2023-01-12T21:15:48.023Z,100069.06
2023-01-12T21:18:16.028Z,100061.44
2023-01-12T21:20:46.250Z,100053.88
2023-01-12T21:23:14.229Z,100059.66
2023-01-12T21:25:43.107Z,100051.03
2023-01-12T21:28:11.478Z,100064.97
2023-01-12T21:30:41.530Z,100061.44
2023-01-12T21:33:09.798Z,100038.72
2023-01-12T21:35:38.397Z,100060.94
2023-01-12T21:38:08.006Z,100051.97
2023-01-12T21:40:36.226Z,100060.41
2023-01-12T21:43:08.869Z,100053.00
2023-01-12T21:45:37.086Z,100051.50
2023-01-12T21:48:05.572Z,100049.59
2023-01-12T21:50:34.292Z,100044.28
2023-01-12T21:53:03.636Z,100048.56
2023-01-12T21:55:33.733Z,100051.34
2023-01-12T21:58:03.025Z,100032.19
2023-01-12T22:00:31.392Z,100030.72
2023-01-12T22:02:59.592Z,100047.13
2023-01-12T22:05:27.887Z,100047.44
2023-01-12T22:07:57.854Z,100037.91
2023-01-12T22:10:30.519Z,100041.50
2023-01-12T22:13:02.809Z,100041.63
2023-01-12T22:15:31.555Z,100052.00
2023-01-12T22:17:59.820Z,100044.78
2023-01-12T22:20:28.816Z,100040.06
2023-01-12T22:22:56.859Z,100045.09
2023-01-12T22:25:24.891Z,100034.56
2023-01-12T22:27:52.952Z,100016.63
2023-01-12T22:30:24.146Z,100036.75
2023-01-12T22:32:55.427Z,100041.78
2023-01-12T22:35:24.314Z,100032.88
2023-01-12T22:37:52.145Z,100032.69
2023-01-12T22:40:20.240Z,100025.00
2023-01-12T22:43:05.745Z,100025.69
2023-01-12T22:45:37.709Z,100032.56
2023-01-12T22:48:06.384Z,100002.16
2023-01-12T22:50:34.489Z,100024.25
2023-01-12T22:53:02.584Z,100021.84
2023-01-12T22:55:30.687Z,100025.66
2023-01-12T22:57:58.619Z,100017.41
2023-01-12T23:00:26.591Z,100012.28
2023-01-12T23:03:02.192Z,100015.78
2023-01-12T23:05:33.324Z,100013.28
2023-01-12T23:08:01.705Z,100008.81
2023-01-12T23:10:30.066Z,100013.56
2023-01-12T23:13:16.076Z,100003.75
2023-01-12T23:15:47.157Z,100009.03
2023-01-12T23:18:18.419Z,100005.56
2023-01-12T23:20:46.893Z,100007.06
2023-01-12T23:23:17.632Z,100010.28
2023-01-12T23:25:46.677Z,99996.66
2023-01-12T23:28:15.696Z,100001.84
2023-01-12T23:30:44.451Z,100006.38
2023-01-12T23:33:12.409Z,100009.84
2023-01-12T23:35:43.067Z,100007.22
2023-01-12T23:38:16.244Z,100002.69
2023-01-12T23:40:44.287Z,100004.88
2023-01-12T23:43:12.221Z,100010.00
2023-01-12T23:45:40.126Z,100010.66
2023-01-12T23:48:08.277Z,100006.75
2023-01-12T23:50:36.253Z,100012.78
2023-01-12T23:53:05.916Z,99994.63
2023-01-12T23:55:33.878Z,100010.75
2023-01-12T23:58:02.259Z,100008.41
